Terminal Aerodrome Forecast
Issued by NWS

Current Version | Previous Version | Text Only | Print | Product List | Glossary Off
Versions: 1 2 3 4 5 6 7 8 9 10 11 12 13 14

000
FTUS41 KILN 220500 RRA
TAFLUK
TAF
KLUK 220547Z 2206/2306 VRB03KT P6SM SKC
      TEMPO 2209/2211 4SM BR
     FM221500 25008KT P6SM SCT050
     FM222200 31008KT P6SM SCT050 SCT250
     FM230100 04004KT P6SM SCT150=

USA.gov is the U.S. government's official web portal to all federal, state and local government web resources and services.